Statenville, Georgia
Current Conditions -  °F | °C
As of 5:53 PM on Thursday 27 Nov 2014 (Local Time) from KVLD Reporting Station
Clear Clear  
Wind Chill: 50°   Ceiling: Unl
Heat Index: 50°   Visibility: 10mi
Dew Point: 34°   Wind: 3mph
Humidity: 54%   Direction: NA
Pressure: 30.28"   Gusts: NA
Location:  30.7°N, 83.03°W
Report Text: KVLD 272253Z AUTO VRB03KT 10SM CLR 10/01 A3028 RMK AO2 SLP263 T01000011
Loading
Personal Weather Stations






























Interactive Weather Map New forecast layout! Learn more

10-Day Weather Forecast

Advertisements
Track Severe Weather on mobile